sensor_id;sensor_type;location;lat;lon;timestamp;P1;durP1;ratioP1;P2;durP2;ratioP2
12871;SDS011;6504;53.766;9.626;2024-02-14T00:01:02;8.67;;;5.87;;
12871;SDS011;6504;53.766;9.626;2024-02-14T00:03:35;6.43;;;5.77;;
12871;SDS011;6504;53.766;9.626;2024-02-14T00:06:04;7.03;;;5.70;;
12871;SDS011;6504;53.766;9.626;2024-02-14T00:08:33;6.20;;;5.50;;
12871;SDS011;6504;53.766;9.626;2024-02-14T00:11:02;5.90;;;5.10;;
12871;SDS011;6504;53.766;9.626;2024-02-14T00:13:30;6.60;;;5.30;;
12871;SDS011;6504;53.766;9.626;2024-02-14T00:16:02;6.80;;;5.53;;
12871;SDS011;6504;53.766;9.626;2024-02-14T00:18:30;7.63;;;5.30;;
12871;SDS011;6504;53.766;9.626;2024-02-14T00:20:58;6.57;;;5.60;;
12871;SDS011;6504;53.766;9.626;2024-02-14T00:23:27;8.27;;;5.23;;
12871;SDS011;6504;53.766;9.626;2024-02-14T00:25:55;6.23;;;4.83;;
12871;SDS011;6504;53.766;9.626;2024-02-14T00:28:23;6.20;;;4.87;;
12871;SDS011;6504;53.766;9.626;2024-02-14T00:30:53;7.67;;;5.00;;
12871;SDS011;6504;53.766;9.626;2024-02-14T00:33:22;4.93;;;4.40;;
12871;SDS011;6504;53.766;9.626;2024-02-14T00:35:51;5.13;;;4.70;;
12871;SDS011;6504;53.766;9.626;2024-02-14T00:38:19;5.23;;;4.47;;
12871;SDS011;6504;53.766;9.626;2024-02-14T00:40:47;5.13;;;4.50;;
12871;SDS011;6504;53.766;9.626;2024-02-14T00:43:15;6.53;;;4.03;;
12871;SDS011;6504;53.766;9.626;2024-02-14T00:45:43;5.00;;;4.57;;
12871;SDS011;6504;53.766;9.626;2024-02-14T00:48:12;6.43;;;4.00;;
12871;SDS011;6504;53.766;9.626;2024-02-14T00:50:42;4.80;;;3.87;;
12871;SDS011;6504;53.766;9.626;2024-02-14T00:53:10;4.90;;;4.40;;
12871;SDS011;6504;53.766;9.626;2024-02-14T00:55:38;6.97;;;4.23;;
12871;SDS011;6504;53.766;9.626;2024-02-14T00:58:06;5.30;;;4.50;;
12871;SDS011;6504;53.766;9.626;2024-02-14T01:00:34;4.50;;;3.83;;
12871;SDS011;6504;53.766;9.626;2024-02-14T01:03:02;7.83;;;3.70;;
12871;SDS011;6504;53.766;9.626;2024-02-14T01:05:31;5.27;;;4.00;;
12871;SDS011;6504;53.766;9.626;2024-02-14T01:08:00;6.17;;;4.30;;
12871;SDS011;6504;53.766;9.626;2024-02-14T01:10:28;5.47;;;3.90;;
12871;SDS011;6504;53.766;9.626;2024-02-14T01:12:56;5.43;;;4.60;;
12871;SDS011;6504;53.766;9.626;2024-02-14T01:15:24;5.50;;;3.83;;
12871;SDS011;6504;53.766;9.626;2024-02-14T01:17:52;4.13;;;3.73;;
12871;SDS011;6504;53.766;9.626;2024-02-14T01:20:21;4.67;;;3.90;;
12871;SDS011;6504;53.766;9.626;2024-02-14T01:22:49;5.23;;;4.27;;
12871;SDS011;6504;53.766;9.626;2024-02-14T01:25:19;4.93;;;4.00;;
12871;SDS011;6504;53.766;9.626;2024-02-14T01:27:47;5.20;;;3.93;;
12871;SDS011;6504;53.766;9.626;2024-02-14T01:30:15;4.80;;;4.00;;
12871;SDS011;6504;53.766;9.626;2024-02-14T01:32:44;5.97;;;4.17;;
12871;SDS011;6504;53.766;9.626;2024-02-14T01:35:12;4.70;;;4.30;;
12871;SDS011;6504;53.766;9.626;2024-02-14T01:37:40;4.47;;;4.07;;
12871;SDS011;6504;53.766;9.626;2024-02-14T01:40:10;4.87;;;4.40;;
12871;SDS011;6504;53.766;9.626;2024-02-14T01:42:40;4.63;;;4.20;;
12871;SDS011;6504;53.766;9.626;2024-02-14T01:45:08;5.33;;;4.50;;
12871;SDS011;6504;53.766;9.626;2024-02-14T01:47:36;5.07;;;4.57;;
12871;SDS011;6504;53.766;9.626;2024-02-14T01:50:07;4.97;;;4.47;;
12871;SDS011;6504;53.766;9.626;2024-02-14T01:52:38;7.30;;;4.73;;
12871;SDS011;6504;53.766;9.626;2024-02-14T01:55:06;5.93;;;4.00;;
12871;SDS011;6504;53.766;9.626;2024-02-14T01:57:35;5.87;;;5.23;;
12871;SDS011;6504;53.766;9.626;2024-02-14T02:00:07;5.70;;;4.17;;
12871;SDS011;6504;53.766;9.626;2024-02-14T02:02:41;5.00;;;4.50;;
12871;SDS011;6504;53.766;9.626;2024-02-14T02:05:09;5.27;;;4.47;;
12871;SDS011;6504;53.766;9.626;2024-02-14T02:07:38;4.67;;;4.27;;
12871;SDS011;6504;53.766;9.626;2024-02-14T02:10:09;5.10;;;4.30;;
12871;SDS011;6504;53.766;9.626;2024-02-14T02:12:37;6.03;;;5.13;;
12871;SDS011;6504;53.766;9.626;2024-02-14T02:15:06;7.30;;;4.77;;
12871;SDS011;6504;53.766;9.626;2024-02-14T02:17:40;7.10;;;5.10;;
12871;SDS011;6504;53.766;9.626;2024-02-14T02:20:10;4.93;;;4.50;;
12871;SDS011;6504;53.766;9.626;2024-02-14T02:22:44;6.33;;;4.70;;
12871;SDS011;6504;53.766;9.626;2024-02-14T02:25:14;6.90;;;5.03;;
12871;SDS011;6504;53.766;9.626;2024-02-14T02:27:44;5.70;;;4.87;;
12871;SDS011;6504;53.766;9.626;2024-02-14T02:30:12;5.33;;;4.83;;
12871;SDS011;6504;53.766;9.626;2024-02-14T02:32:41;5.30;;;4.80;;
12871;SDS011;6504;53.766;9.626;2024-02-14T02:35:10;6.23;;;5.10;;
12871;SDS011;6504;53.766;9.626;2024-02-14T02:37:38;5.57;;;5.17;;
12871;SDS011;6504;53.766;9.626;2024-02-14T02:40:08;7.00;;;5.93;;
12871;SDS011;6504;53.766;9.626;2024-02-14T02:42:39;6.30;;;5.70;;
12871;SDS011;6504;53.766;9.626;2024-02-14T02:45:07;6.47;;;5.80;;
12871;SDS011;6504;53.766;9.626;2024-02-14T02:47:36;6.27;;;5.77;;
12871;SDS011;6504;53.766;9.626;2024-02-14T02:50:04;7.10;;;5.97;;
12871;SDS011;6504;53.766;9.626;2024-02-14T02:52:34;8.63;;;5.73;;
12871;SDS011;6504;53.766;9.626;2024-02-14T02:55:02;7.27;;;6.57;;
12871;SDS011;6504;53.766;9.626;2024-02-14T02:57:32;7.83;;;6.03;;
12871;SDS011;6504;53.766;9.626;2024-02-14T03:00:03;8.10;;;5.47;;
12871;SDS011;6504;53.766;9.626;2024-02-14T03:02:35;6.57;;;5.97;;
12871;SDS011;6504;53.766;9.626;2024-02-14T03:05:04;7.13;;;6.30;;
12871;SDS011;6504;53.766;9.626;2024-02-14T03:07:37;7.17;;;6.00;;
12871;SDS011;6504;53.766;9.626;2024-02-14T03:10:05;8.00;;;6.07;;
12871;SDS011;6504;53.766;9.626;2024-02-14T03:12:35;7.37;;;6.23;;
12871;SDS011;6504;53.766;9.626;2024-02-14T03:15:05;7.17;;;6.57;;
12871;SDS011;6504;53.766;9.626;2024-02-14T03:17:36;6.57;;;5.90;;
12871;SDS011;6504;53.766;9.626;2024-02-14T03:20:05;7.77;;;6.00;;
12871;SDS011;6504;53.766;9.626;2024-02-14T03:22:43;6.93;;;6.23;;
12871;SDS011;6504;53.766;9.626;2024-02-14T03:25:12;7.53;;;6.03;;
12871;SDS011;6504;53.766;9.626;2024-02-14T03:27:44;6.67;;;6.07;;
12871;SDS011;6504;53.766;9.626;2024-02-14T03:30:13;6.77;;;6.10;;
12871;SDS011;6504;53.766;9.626;2024-02-14T03:32:42;6.77;;;6.07;;
12871;SDS011;6504;53.766;9.626;2024-02-14T03:35:11;6.87;;;5.90;;
12871;SDS011;6504;53.766;9.626;2024-02-14T03:37:40;7.90;;;6.20;;
12871;SDS011;6504;53.766;9.626;2024-02-14T03:40:09;6.43;;;5.83;;
12871;SDS011;6504;53.766;9.626;2024-02-14T03:42:38;6.17;;;5.57;;
12871;SDS011;6504;53.766;9.626;2024-02-14T03:45:08;6.13;;;5.53;;
12871;SDS011;6504;53.766;9.626;2024-02-14T03:47:37;6.27;;;5.67;;
12871;SDS011;6504;53.766;9.626;2024-02-14T03:50:07;8.10;;;6.40;;
12871;SDS011;6504;53.766;9.626;2024-02-14T03:52:35;7.43;;;6.00;;
12871;SDS011;6504;53.766;9.626;2024-02-14T03:55:04;6.23;;;5.63;;
12871;SDS011;6504;53.766;9.626;2024-02-14T03:57:33;7.10;;;6.40;;
12871;SDS011;6504;53.766;9.626;2024-02-14T04:00:05;6.27;;;5.67;;
12871;SDS011;6504;53.766;9.626;2024-02-14T04:02:37;7.30;;;5.77;;
12871;SDS011;6504;53.766;9.626;2024-02-14T04:05:07;6.43;;;5.83;;
12871;SDS011;6504;53.766;9.626;2024-02-14T04:07:35;8.90;;;5.53;;
12871;SDS011;6504;53.766;9.626;2024-02-14T04:10:05;6.40;;;5.80;;
12871;SDS011;6504;53.766;9.626;2024-02-14T04:12:33;7.07;;;6.30;;
12871;SDS011;6504;53.766;9.626;2024-02-14T04:15:02;7.17;;;5.73;;
12871;SDS011;6504;53.766;9.626;2024-02-14T04:17:32;6.87;;;6.13;;
12871;SDS011;6504;53.766;9.626;2024-02-14T04:20:00;6.93;;;6.33;;
12871;SDS011;6504;53.766;9.626;2024-02-14T04:22:28;7.00;;;6.30;;
12871;SDS011;6504;53.766;9.626;2024-02-14T04:24:57;7.23;;;6.33;;
12871;SDS011;6504;53.766;9.626;2024-02-14T04:27:27;7.33;;;6.50;;
12871;SDS011;6504;53.766;9.626;2024-02-14T04:29:55;8.33;;;6.50;;
12871;SDS011;6504;53.766;9.626;2024-02-14T04:32:24;7.57;;;6.80;;
12871;SDS011;6504;53.766;9.626;2024-02-14T04:34:54;7.77;;;6.97;;
12871;SDS011;6504;53.766;9.626;2024-02-14T04:37:23;10.40;;;7.40;;
12871;SDS011;6504;53.766;9.626;2024-02-14T04:39:51;7.90;;;7.00;;
12871;SDS011;6504;53.766;9.626;2024-02-14T04:42:19;8.43;;;7.00;;
12871;SDS011;6504;53.766;9.626;2024-02-14T04:44:47;8.40;;;7.03;;
12871;SDS011;6504;53.766;9.626;2024-02-14T04:47:15;7.87;;;7.13;;
12871;SDS011;6504;53.766;9.626;2024-02-14T04:49:43;7.77;;;7.07;;
12871;SDS011;6504;53.766;9.626;2024-02-14T04:52:13;13.33;;;7.60;;
12871;SDS011;6504;53.766;9.626;2024-02-14T04:54:42;9.03;;;7.77;;
12871;SDS011;6504;53.766;9.626;2024-02-14T04:57:10;7.97;;;6.87;;
12871;SDS011;6504;53.766;9.626;2024-02-14T04:59:39;8.77;;;7.30;;
12871;SDS011;6504;53.766;9.626;2024-02-14T05:02:07;8.33;;;7.53;;
12871;SDS011;6504;53.766;9.626;2024-02-14T05:04:35;7.87;;;7.07;;
12871;SDS011;6504;53.766;9.626;2024-02-14T05:07:04;8.53;;;7.50;;
12871;SDS011;6504;53.766;9.626;2024-02-14T05:09:34;8.73;;;7.70;;
12871;SDS011;6504;53.766;9.626;2024-02-14T05:12:02;8.27;;;7.47;;
12871;SDS011;6504;53.766;9.626;2024-02-14T05:14:31;8.03;;;7.33;;
12871;SDS011;6504;53.766;9.626;2024-02-14T05:16:59;8.77;;;7.97;;
12871;SDS011;6504;53.766;9.626;2024-02-14T05:19:28;9.43;;;8.00;;
12871;SDS011;6504;53.766;9.626;2024-02-14T05:21:56;8.60;;;7.80;;
12871;SDS011;6504;53.766;9.626;2024-02-14T05:24:25;8.97;;;7.97;;
12871;SDS011;6504;53.766;9.626;2024-02-14T05:26:57;8.10;;;7.40;;
12871;SDS011;6504;53.766;9.626;2024-02-14T05:29:25;8.13;;;7.33;;
12871;SDS011;6504;53.766;9.626;2024-02-14T05:31:53;8.07;;;7.37;;
12871;SDS011;6504;53.766;9.626;2024-02-14T05:34:22;8.47;;;7.67;;
12871;SDS011;6504;53.766;9.626;2024-02-14T05:36:51;8.70;;;7.87;;
12871;SDS011;6504;53.766;9.626;2024-02-14T05:39:19;8.83;;;7.47;;
12871;SDS011;6504;53.766;9.626;2024-02-14T05:41:47;8.13;;;7.37;;
12871;SDS011;6504;53.766;9.626;2024-02-14T05:44:17;8.67;;;6.90;;
12871;SDS011;6504;53.766;9.626;2024-02-14T05:46:45;7.23;;;6.53;;
12871;SDS011;6504;53.766;9.626;2024-02-14T05:49:14;7.80;;;7.00;;
12871;SDS011;6504;53.766;9.626;2024-02-14T05:51:42;7.47;;;6.87;;
12871;SDS011;6504;53.766;9.626;2024-02-14T05:54:10;7.20;;;6.57;;
12871;SDS011;6504;53.766;9.626;2024-02-14T05:56:39;7.37;;;6.67;;
12871;SDS011;6504;53.766;9.626;2024-02-14T05:59:07;7.03;;;6.43;;
12871;SDS011;6504;53.766;9.626;2024-02-14T06:01:37;8.33;;;7.57;;
12871;SDS011;6504;53.766;9.626;2024-02-14T06:04:05;7.90;;;7.10;;
12871;SDS011;6504;53.766;9.626;2024-02-14T06:06:34;6.93;;;6.30;;
12871;SDS011;6504;53.766;9.626;2024-02-14T06:09:02;7.43;;;6.73;;
12871;SDS011;6504;53.766;9.626;2024-02-14T06:11:36;8.77;;;7.90;;
12871;SDS011;6504;53.766;9.626;2024-02-14T06:14:05;7.30;;;6.57;;
12871;SDS011;6504;53.766;9.626;2024-02-14T06:16:34;7.10;;;6.50;;
12871;SDS011;6504;53.766;9.626;2024-02-14T06:19:04;7.17;;;6.57;;
12871;SDS011;6504;53.766;9.626;2024-02-14T06:21:32;7.60;;;6.90;;
12871;SDS011;6504;53.766;9.626;2024-02-14T06:24:00;7.97;;;7.00;;
12871;SDS011;6504;53.766;9.626;2024-02-14T06:26:30;7.77;;;7.03;;
12871;SDS011;6504;53.766;9.626;2024-02-14T06:28:59;7.87;;;7.20;;
12871;SDS011;6504;53.766;9.626;2024-02-14T06:31:31;7.23;;;6.53;;
12871;SDS011;6504;53.766;9.626;2024-02-14T06:33:59;8.30;;;7.50;;
12871;SDS011;6504;53.766;9.626;2024-02-14T06:36:29;7.90;;;7.20;;
12871;SDS011;6504;53.766;9.626;2024-02-14T06:38:57;8.00;;;7.20;;
12871;SDS011;6504;53.766;9.626;2024-02-14T06:41:25;8.40;;;7.50;;
12871;SDS011;6504;53.766;9.626;2024-02-14T06:43:53;7.97;;;7.27;;
12871;SDS011;6504;53.766;9.626;2024-02-14T06:46:22;7.90;;;7.10;;
12871;SDS011;6504;53.766;9.626;2024-02-14T06:48:50;8.27;;;7.47;;
12871;SDS011;6504;53.766;9.626;2024-02-14T06:51:18;8.80;;;7.90;;
12871;SDS011;6504;53.766;9.626;2024-02-14T06:53:48;8.47;;;7.53;;
12871;SDS011;6504;53.766;9.626;2024-02-14T06:56:17;8.63;;;7.80;;
12871;SDS011;6504;53.766;9.626;2024-02-14T06:58:45;8.30;;;7.50;;
12871;SDS011;6504;53.766;9.626;2024-02-14T07:01:13;8.63;;;7.73;;
12871;SDS011;6504;53.766;9.626;2024-02-14T07:03:44;9.07;;;8.27;;
12871;SDS011;6504;53.766;9.626;2024-02-14T07:06:13;8.07;;;7.27;;
12871;SDS011;6504;53.766;9.626;2024-02-14T07:08:41;8.67;;;7.77;;
12871;SDS011;6504;53.766;9.626;2024-02-14T07:11:10;8.57;;;7.73;;
12871;SDS011;6504;53.766;9.626;2024-02-14T07:13:38;8.40;;;7.50;;
12871;SDS011;6504;53.766;9.626;2024-02-14T07:16:06;8.43;;;7.63;;
12871;SDS011;6504;53.766;9.626;2024-02-14T07:18:37;8.80;;;8.00;;
12871;SDS011;6504;53.766;9.626;2024-02-14T07:21:05;9.67;;;8.77;;
12871;SDS011;6504;53.766;9.626;2024-02-14T07:23:34;8.97;;;8.17;;
12871;SDS011;6504;53.766;9.626;2024-02-14T07:26:02;8.07;;;7.30;;
12871;SDS011;6504;53.766;9.626;2024-02-14T07:28:32;8.97;;;8.07;;
12871;SDS011;6504;53.766;9.626;2024-02-14T07:31:00;10.00;;;9.00;;
12871;SDS011;6504;53.766;9.626;2024-02-14T07:33:28;10.10;;;9.10;;
12871;SDS011;6504;53.766;9.626;2024-02-14T07:35:57;9.73;;;8.83;;
12871;SDS011;6504;53.766;9.626;2024-02-14T07:38:25;9.27;;;8.37;;
12871;SDS011;6504;53.766;9.626;2024-02-14T07:40:53;9.47;;;8.57;;
12871;SDS011;6504;53.766;9.626;2024-02-14T07:43:21;9.67;;;8.77;;
12871;SDS011;6504;53.766;9.626;2024-02-14T07:45:51;10.30;;;9.23;;
12871;SDS011;6504;53.766;9.626;2024-02-14T07:48:19;9.83;;;8.43;;
12871;SDS011;6504;53.766;9.626;2024-02-14T07:50:48;9.00;;;8.20;;
12871;SDS011;6504;53.766;9.626;2024-02-14T07:53:17;10.00;;;9.03;;
12871;SDS011;6504;53.766;9.626;2024-02-14T07:55:45;9.43;;;8.43;;
12871;SDS011;6504;53.766;9.626;2024-02-14T07:58:13;10.70;;;9.23;;
12871;SDS011;6504;53.766;9.626;2024-02-14T08:00:41;10.73;;;9.07;;
12871;SDS011;6504;53.766;9.626;2024-02-14T08:03:11;11.30;;;9.53;;
12871;SDS011;6504;53.766;9.626;2024-02-14T08:05:39;9.90;;;9.00;;
12871;SDS011;6504;53.766;9.626;2024-02-14T08:08:09;9.83;;;8.93;;
12871;SDS011;6504;53.766;9.626;2024-02-14T08:10:37;10.13;;;9.13;;
12871;SDS011;6504;53.766;9.626;2024-02-14T08:13:05;10.47;;;9.47;;
12871;SDS011;6504;53.766;9.626;2024-02-14T08:15:33;10.37;;;9.20;;
12871;SDS011;6504;53.766;9.626;2024-02-14T08:18:03;10.03;;;9.13;;
12871;SDS011;6504;53.766;9.626;2024-02-14T08:20:37;9.87;;;8.97;;
12871;SDS011;6504;53.766;9.626;2024-02-14T08:23:05;11.20;;;8.83;;
12871;SDS011;6504;53.766;9.626;2024-02-14T08:25:33;9.73;;;8.70;;
12871;SDS011;6504;53.766;9.626;2024-02-14T08:28:01;10.33;;;9.30;;
12871;SDS011;6504;53.766;9.626;2024-02-14T08:30:30;8.93;;;8.03;;
12871;SDS011;6504;53.766;9.626;2024-02-14T08:32:58;10.23;;;9.23;;
12871;SDS011;6504;53.766;9.626;2024-02-14T08:35:26;9.50;;;8.60;;
12871;SDS011;6504;53.766;9.626;2024-02-14T08:37:56;10.33;;;9.37;;
12871;SDS011;6504;53.766;9.626;2024-02-14T08:40:24;9.43;;;8.53;;
12871;SDS011;6504;53.766;9.626;2024-02-14T08:42:53;9.67;;;8.77;;
12871;SDS011;6504;53.766;9.626;2024-02-14T08:45:21;10.10;;;9.10;;
12871;SDS011;6504;53.766;9.626;2024-02-14T08:47:49;9.50;;;8.60;;
12871;SDS011;6504;53.766;9.626;2024-02-14T08:50:17;10.40;;;9.37;;
12871;SDS011;6504;53.766;9.626;2024-02-14T08:52:45;9.47;;;8.57;;
12871;SDS011;6504;53.766;9.626;2024-02-14T08:55:15;9.80;;;8.80;;
12871;SDS011;6504;53.766;9.626;2024-02-14T08:57:45;9.70;;;8.80;;
12871;SDS011;6504;53.766;9.626;2024-02-14T09:00:15;9.80;;;8.90;;
12871;SDS011;6504;53.766;9.626;2024-02-14T09:02:46;9.40;;;8.50;;
12871;SDS011;6504;53.766;9.626;2024-02-14T09:05:15;10.57;;;9.47;;
12871;SDS011;6504;53.766;9.626;2024-02-14T09:07:45;10.97;;;9.87;;
12871;SDS011;6504;53.766;9.626;2024-02-14T09:10:15;10.10;;;9.17;;
12871;SDS011;6504;53.766;9.626;2024-02-14T09:12:43;9.63;;;8.73;;
12871;SDS011;6504;53.766;9.626;2024-02-14T09:15:11;10.77;;;9.63;;
12871;SDS011;6504;53.766;9.626;2024-02-14T09:17:39;10.17;;;9.17;;
12871;SDS011;6504;53.766;9.626;2024-02-14T09:20:09;9.90;;;9.03;;
12871;SDS011;6504;53.766;9.626;2024-02-14T09:22:41;10.37;;;9.03;;
12871;SDS011;6504;53.766;9.626;2024-02-14T09:25:09;10.77;;;9.53;;
12871;SDS011;6504;53.766;9.626;2024-02-14T09:27:38;10.17;;;9.23;;
12871;SDS011;6504;53.766;9.626;2024-02-14T09:30:07;10.40;;;9.47;;
12871;SDS011;6504;53.766;9.626;2024-02-14T09:32:53;10.03;;;9.03;;
12871;SDS011;6504;53.766;9.626;2024-02-14T09:35:21;10.10;;;9.10;;
12871;SDS011;6504;53.766;9.626;2024-02-14T09:37:50;10.50;;;9.50;;
12871;SDS011;6504;53.766;9.626;2024-02-14T09:40:18;10.73;;;9.67;;
12871;SDS011;6504;53.766;9.626;2024-02-14T09:42:49;10.60;;;9.60;;
12871;SDS011;6504;53.766;9.626;2024-02-14T09:45:22;10.67;;;9.63;;
12871;SDS011;6504;53.766;9.626;2024-02-14T09:47:52;10.77;;;9.67;;
12871;SDS011;6504;53.766;9.626;2024-02-14T09:50:21;9.83;;;8.93;;
12871;SDS011;6504;53.766;9.626;2024-02-14T09:52:51;10.97;;;9.80;;
12871;SDS011;6504;53.766;9.626;2024-02-14T09:55:22;10.33;;;9.33;;
12871;SDS011;6504;53.766;9.626;2024-02-14T09:57:53;10.83;;;9.83;;
12871;SDS011;6504;53.766;9.626;2024-02-14T10:00:22;11.47;;;10.27;;
12871;SDS011;6504;53.766;9.626;2024-02-14T10:02:51;11.50;;;10.33;;
12871;SDS011;6504;53.766;9.626;2024-02-14T10:05:19;11.50;;;10.13;;
12871;SDS011;6504;53.766;9.626;2024-02-14T10:07:47;11.30;;;10.10;;
12871;SDS011;6504;53.766;9.626;2024-02-14T10:10:15;12.03;;;10.83;;
12871;SDS011;6504;53.766;9.626;2024-02-14T10:12:44;12.97;;;11.30;;
12871;SDS011;6504;53.766;9.626;2024-02-14T10:15:13;11.83;;;10.60;;
12871;SDS011;6504;53.766;9.626;2024-02-14T10:17:42;12.10;;;10.90;;
12871;SDS011;6504;53.766;9.626;2024-02-14T10:20:11;12.10;;;10.90;;
12871;SDS011;6504;53.766;9.626;2024-02-14T10:22:44;11.53;;;10.40;;
12871;SDS011;6504;53.766;9.626;2024-02-14T10:25:13;11.13;;;10.03;;
12871;SDS011;6504;53.766;9.626;2024-02-14T10:27:41;11.57;;;10.40;;
12871;SDS011;6504;53.766;9.626;2024-02-14T10:30:09;12.23;;;10.93;;
12871;SDS011;6504;53.766;9.626;2024-02-14T10:32:40;11.80;;;10.60;;
12871;SDS011;6504;53.766;9.626;2024-02-14T10:35:14;12.17;;;10.87;;
12871;SDS011;6504;53.766;9.626;2024-02-14T10:37:42;12.23;;;10.90;;
12871;SDS011;6504;53.766;9.626;2024-02-14T10:40:11;12.47;;;11.20;;
12871;SDS011;6504;53.766;9.626;2024-02-14T10:42:39;12.20;;;10.90;;
12871;SDS011;6504;53.766;9.626;2024-02-14T10:45:08;10.17;;;9.03;;
12871;SDS011;6504;53.766;9.626;2024-02-14T10:47:36;10.20;;;9.20;;
12871;SDS011;6504;53.766;9.626;2024-02-14T10:50:10;10.30;;;9.30;;
12871;SDS011;6504;53.766;9.626;2024-02-14T10:52:41;10.17;;;9.17;;
12871;SDS011;6504;53.766;9.626;2024-02-14T10:55:10;9.00;;;8.07;;
12871;SDS011;6504;53.766;9.626;2024-02-14T10:57:38;9.67;;;8.77;;
12871;SDS011;6504;53.766;9.626;2024-02-14T11:00:08;9.77;;;8.77;;
12871;SDS011;6504;53.766;9.626;2024-02-14T11:02:41;9.37;;;8.20;;
12871;SDS011;6504;53.766;9.626;2024-02-14T11:05:11;8.63;;;7.73;;
12871;SDS011;6504;53.766;9.626;2024-02-14T11:07:44;9.50;;;8.07;;
12871;SDS011;6504;53.766;9.626;2024-02-14T11:10:13;8.87;;;7.97;;
12871;SDS011;6504;53.766;9.626;2024-02-14T11:12:42;8.63;;;7.67;;
12871;SDS011;6504;53.766;9.626;2024-02-14T11:15:12;8.17;;;7.37;;
12871;SDS011;6504;53.766;9.626;2024-02-14T11:17:46;8.27;;;7.47;;
12871;SDS011;6504;53.766;9.626;2024-02-14T11:20:16;8.60;;;7.70;;
12871;SDS011;6504;53.766;9.626;2024-02-14T11:22:53;9.00;;;8.10;;
12871;SDS011;6504;53.766;9.626;2024-02-14T11:25:23;9.70;;;8.27;;
12871;SDS011;6504;53.766;9.626;2024-02-14T11:27:56;9.07;;;7.73;;
12871;SDS011;6504;53.766;9.626;2024-02-14T11:30:33;9.03;;;7.47;;
12871;SDS011;6504;53.766;9.626;2024-02-14T11:35:53;10.47;;;7.70;;
12871;SDS011;6504;53.766;9.626;2024-02-14T11:38:22;9.63;;;7.50;;
12871;SDS011;6504;53.766;9.626;2024-02-14T11:40:53;8.40;;;7.37;;
12871;SDS011;6504;53.766;9.626;2024-02-14T11:43:23;10.27;;;8.07;;
12871;SDS011;6504;53.766;9.626;2024-02-14T11:45:51;8.70;;;7.60;;
12871;SDS011;6504;53.766;9.626;2024-02-14T11:48:19;8.77;;;7.33;;
12871;SDS011;6504;53.766;9.626;2024-02-14T11:50:51;8.90;;;7.20;;
12871;SDS011;6504;53.766;9.626;2024-02-14T11:53:22;8.87;;;7.83;;
12871;SDS011;6504;53.766;9.626;2024-02-14T11:55:50;8.57;;;7.37;;
12871;SDS011;6504;53.766;9.626;2024-02-14T11:58:18;9.27;;;8.00;;
12871;SDS011;6504;53.766;9.626;2024-02-14T12:00:46;9.33;;;7.40;;
12871;SDS011;6504;53.766;9.626;2024-02-14T12:03:16;10.00;;;7.77;;
12871;SDS011;6504;53.766;9.626;2024-02-14T12:05:46;9.40;;;7.00;;
12871;SDS011;6504;53.766;9.626;2024-02-14T12:08:16;9.77;;;7.87;;
12871;SDS011;6504;53.766;9.626;2024-02-14T12:10:46;8.90;;;7.70;;
12871;SDS011;6504;53.766;9.626;2024-02-14T12:13:17;9.20;;;7.30;;
12871;SDS011;6504;53.766;9.626;2024-02-14T12:15:49;10.57;;;7.50;;
12871;SDS011;6504;53.766;9.626;2024-02-14T12:18:19;9.23;;;7.03;;
12871;SDS011;6504;53.766;9.626;2024-02-14T12:20:49;8.73;;;7.30;;
12871;SDS011;6504;53.766;9.626;2024-02-14T12:23:23;10.40;;;7.80;;
12871;SDS011;6504;53.766;9.626;2024-02-14T12:25:53;11.50;;;7.43;;
12871;SDS011;6504;53.766;9.626;2024-02-14T12:28:22;8.57;;;6.70;;
12871;SDS011;6504;53.766;9.626;2024-02-14T12:30:51;8.67;;;7.23;;
12871;SDS011;6504;53.766;9.626;2024-02-14T12:33:23;10.03;;;7.40;;
12871;SDS011;6504;53.766;9.626;2024-02-14T12:35:53;7.67;;;6.40;;
12871;SDS011;6504;53.766;9.626;2024-02-14T12:38:25;8.57;;;7.13;;
12871;SDS011;6504;53.766;9.626;2024-02-14T12:40:53;7.07;;;6.33;;
12871;SDS011;6504;53.766;9.626;2024-02-14T12:43:21;8.10;;;6.37;;
12871;SDS011;6504;53.766;9.626;2024-02-14T12:45:49;7.23;;;5.83;;
12871;SDS011;6504;53.766;9.626;2024-02-14T12:48:21;6.80;;;5.70;;
12871;SDS011;6504;53.766;9.626;2024-02-14T12:50:53;6.10;;;5.20;;
12871;SDS011;6504;53.766;9.626;2024-02-14T12:53:24;5.43;;;4.93;;
12871;SDS011;6504;53.766;9.626;2024-02-14T12:55:53;5.60;;;4.90;;
12871;SDS011;6504;53.766;9.626;2024-02-14T12:58:21;5.57;;;4.97;;
12871;SDS011;6504;53.766;9.626;2024-02-14T13:00:49;6.43;;;5.43;;
12871;SDS011;6504;53.766;9.626;2024-02-14T13:03:18;6.30;;;4.70;;
12871;SDS011;6504;53.766;9.626;2024-02-14T13:05:46;6.00;;;5.23;;
12871;SDS011;6504;53.766;9.626;2024-02-14T13:08:14;5.97;;;5.13;;
12871;SDS011;6504;53.766;9.626;2024-02-14T13:10:44;6.03;;;4.90;;
12871;SDS011;6504;53.766;9.626;2024-02-14T13:13:13;5.60;;;4.90;;
12871;SDS011;6504;53.766;9.626;2024-02-14T13:15:41;6.17;;;4.97;;
12871;SDS011;6504;53.766;9.626;2024-02-14T13:18:11;7.20;;;5.63;;
12871;SDS011;6504;53.766;9.626;2024-02-14T13:20:40;6.57;;;5.20;;
12871;SDS011;6504;53.766;9.626;2024-02-14T13:23:09;7.50;;;5.30;;
12871;SDS011;6504;53.766;9.626;2024-02-14T13:25:37;6.57;;;5.20;;
12871;SDS011;6504;53.766;9.626;2024-02-14T13:28:07;6.57;;;5.50;;
12871;SDS011;6504;53.766;9.626;2024-02-14T13:30:35;6.47;;;5.23;;
12871;SDS011;6504;53.766;9.626;2024-02-14T13:33:04;6.03;;;5.40;;
12871;SDS011;6504;53.766;9.626;2024-02-14T13:35:33;6.83;;;5.60;;
12871;SDS011;6504;53.766;9.626;2024-02-14T13:38:04;5.90;;;5.03;;
12871;SDS011;6504;53.766;9.626;2024-02-14T13:40:33;7.63;;;5.33;;
12871;SDS011;6504;53.766;9.626;2024-02-14T13:43:01;6.03;;;4.83;;
12871;SDS011;6504;53.766;9.626;2024-02-14T13:45:41;7.17;;;5.30;;
12871;SDS011;6504;53.766;9.626;2024-02-14T13:48:10;5.80;;;4.97;;
12871;SDS011;6504;53.766;9.626;2024-02-14T13:50:39;6.50;;;5.07;;
12871;SDS011;6504;53.766;9.626;2024-02-14T13:53:08;6.30;;;4.97;;
12871;SDS011;6504;53.766;9.626;2024-02-14T13:55:36;6.33;;;5.10;;
12871;SDS011;6504;53.766;9.626;2024-02-14T13:58:05;5.53;;;4.80;;
12871;SDS011;6504;53.766;9.626;2024-02-14T14:00:41;7.77;;;5.20;;
12871;SDS011;6504;53.766;9.626;2024-02-14T14:03:10;6.80;;;5.03;;
12871;SDS011;6504;53.766;9.626;2024-02-14T14:05:38;6.40;;;5.27;;
12871;SDS011;6504;53.766;9.626;2024-02-14T14:08:06;6.73;;;5.07;;
12871;SDS011;6504;53.766;9.626;2024-02-14T14:10:34;6.07;;;4.73;;
12871;SDS011;6504;53.766;9.626;2024-02-14T14:13:02;6.60;;;5.37;;
12871;SDS011;6504;53.766;9.626;2024-02-14T14:15:30;6.27;;;5.10;;
12871;SDS011;6504;53.766;9.626;2024-02-14T14:18:00;7.53;;;5.23;;
12871;SDS011;6504;53.766;9.626;2024-02-14T14:20:29;7.40;;;5.20;;
12871;SDS011;6504;53.766;9.626;2024-02-14T14:22:57;6.50;;;5.10;;
12871;SDS011;6504;53.766;9.626;2024-02-14T14:25:26;7.67;;;5.10;;
12871;SDS011;6504;53.766;9.626;2024-02-14T14:27:55;7.93;;;5.70;;
12871;SDS011;6504;53.766;9.626;2024-02-14T14:30:25;7.53;;;5.43;;
12871;SDS011;6504;53.766;9.626;2024-02-14T14:32:53;7.80;;;5.43;;
12871;SDS011;6504;53.766;9.626;2024-02-14T14:35:23;7.33;;;5.47;;
12871;SDS011;6504;53.766;9.626;2024-02-14T14:37:51;8.03;;;5.73;;
12871;SDS011;6504;53.766;9.626;2024-02-14T14:40:20;7.60;;;5.93;;
12871;SDS011;6504;53.766;9.626;2024-02-14T14:42:49;8.17;;;5.97;;
12871;SDS011;6504;53.766;9.626;2024-02-14T14:45:17;9.20;;;6.60;;
12871;SDS011;6504;53.766;9.626;2024-02-14T14:47:45;9.30;;;6.13;;
12871;SDS011;6504;53.766;9.626;2024-02-14T14:50:14;9.40;;;6.83;;
12871;SDS011;6504;53.766;9.626;2024-02-14T14:52:45;7.77;;;6.27;;
12871;SDS011;6504;53.766;9.626;2024-02-14T14:55:14;10.83;;;7.73;;
12871;SDS011;6504;53.766;9.626;2024-02-14T14:57:42;11.23;;;7.87;;
12871;SDS011;6504;53.766;9.626;2024-02-14T15:00:10;11.77;;;8.13;;
12871;SDS011;6504;53.766;9.626;2024-02-14T15:02:39;10.97;;;7.80;;
12871;SDS011;6504;53.766;9.626;2024-02-14T15:05:08;11.30;;;7.67;;
12871;SDS011;6504;53.766;9.626;2024-02-14T15:07:37;12.63;;;8.10;;
12871;SDS011;6504;53.766;9.626;2024-02-14T15:10:08;13.30;;;8.60;;
12871;SDS011;6504;53.766;9.626;2024-02-14T15:12:37;10.53;;;8.00;;